createdAt,value
2019-06-26T00:02:00.589Z,78.70
2019-06-26T00:04:30.576Z,78.20
2019-06-26T00:07:01.034Z,77.20
2019-06-26T00:09:31.774Z,76.80
2019-06-26T00:12:02.106Z,76.10
2019-06-26T00:14:32.329Z,75.70
2019-06-26T00:17:02.439Z,74.90
2019-06-26T00:19:32.674Z,74.30
2019-06-26T00:22:03.363Z,73.40
2019-06-26T00:24:33.725Z,72.70
2019-06-26T00:27:04.061Z,71.70
2019-06-26T00:29:34.283Z,70.60
2019-06-26T00:32:04.707Z,70.30
2019-06-26T00:34:34.623Z,69.20
2019-06-26T00:37:04.921Z,68.60
2019-06-26T01:05:43.617Z,57.30
2019-06-26T01:08:54.140Z,56.70
2019-06-26T02:40:18.768Z,46.60
2019-06-26T02:58:25.755Z,41.70
2019-06-26T03:00:56.543Z,41.50
2019-06-26T03:47:53.918Z,40.40
2019-06-26T03:50:24.807Z,40.00
2019-06-26T03:52:55.486Z,40.60
2019-06-26T03:55:25.808Z,41.40
2019-06-26T03:57:56.335Z,40.00
2019-06-26T04:00:27.725Z,40.40
2019-06-26T04:02:58.314Z,39.80
2019-06-26T04:05:28.816Z,41.40
2019-06-26T04:07:59.084Z,41.80
2019-06-26T04:10:29.228Z,43.10
2019-06-26T04:12:59.868Z,41.10
2019-06-26T04:15:41.422Z,42.40
2019-06-26T04:18:02.336Z,43.70
2019-06-26T04:20:32.927Z,43.70
2019-06-26T04:23:03.500Z,44.80
2019-06-26T04:25:33.936Z,45.00
2019-06-26T04:28:06.437Z,44.80
2019-06-26T04:30:36.210Z,45.70
2019-06-26T04:33:06.839Z,46.50
2019-06-26T04:35:37.390Z,46.20
2019-06-26T04:38:07.559Z,48.30
2019-06-26T04:40:38.149Z,46.40
2019-06-26T04:43:08.683Z,46.20
2019-06-26T04:45:39.086Z,48.10
2019-06-26T04:48:09.417Z,47.60
2019-06-26T04:50:39.667Z,47.00
2019-06-26T04:53:10.066Z,46.40
2019-06-26T04:55:40.607Z,45.30
2019-06-26T04:58:11.132Z,46.70
2019-06-26T05:00:41.955Z,47.30
2019-06-26T05:03:12.403Z,46.30
2019-06-26T05:05:44.533Z,46.40
2019-06-26T05:08:14.718Z,45.30
2019-06-26T05:10:45.251Z,44.50
2019-06-26T05:13:15.846Z,44.50
2019-06-26T05:15:46.071Z,45.40
2019-06-26T05:18:16.702Z,45.80
2019-06-26T05:20:46.928Z,46.10
2019-06-26T05:23:17.375Z,45.50
2019-06-26T05:25:47.977Z,44.90
2019-06-26T05:28:18.486Z,45.00
2019-06-26T05:30:48.475Z,45.80
2019-06-26T05:33:19.192Z,44.70
2019-06-26T05:35:49.510Z,43.70
2019-06-26T05:38:19.947Z,44.70
2019-06-26T05:40:50.147Z,44.50
2019-06-26T05:43:20.784Z,45.30
2019-06-26T06:31:21.270Z,49.40
2019-06-26T07:34:27.122Z,48.20
2019-06-26T07:36:57.286Z,48.70
2019-06-26T07:39:27.571Z,49.50
2019-06-26T07:41:57.754Z,49.30
2019-06-26T07:44:28.459Z,48.80
2019-06-26T07:46:58.954Z,48.60
2019-06-26T07:49:29.309Z,48.60
2019-06-26T09:12:26.364Z,49.00
2019-06-26T09:14:56.606Z,48.70
2019-06-26T11:29:50.377Z,53.50
2019-06-26T11:38:56.122Z,54.00
2019-06-26T11:51:43.236Z,55.40
2019-06-26T13:11:13.833Z,56.80
2019-06-26T13:13:44.026Z,56.80
2019-06-26T13:16:14.384Z,57.20
2019-06-26T13:18:45.914Z,57.10
2019-06-26T13:21:16.250Z,57.10
2019-06-26T13:42:58.273Z,58.00
2019-06-26T13:48:37.784Z,58.30
2019-06-26T13:51:09.781Z,58.60
2019-06-26T13:57:01.565Z,58.30
2019-06-26T13:59:31.789Z,58.40
2019-06-26T14:02:02.509Z,58.40
2019-06-26T14:04:32.426Z,58.50
2019-06-26T14:10:12.524Z,59.20
2019-06-26T14:12:42.308Z,59.00
2019-06-26T14:15:12.767Z,58.90
2019-06-26T14:17:42.664Z,59.20
2019-06-26T14:29:55.053Z,59.30
2019-06-26T14:39:11.458Z,59.80
2019-06-26T14:41:41.327Z,59.90
2019-06-26T14:44:11.743Z,60.40
2019-06-26T14:46:41.724Z,60.10
2019-06-26T14:49:11.754Z,60.00
2019-06-26T14:51:47.065Z,60.00
2019-06-26T14:57:25.860Z,60.60
2019-06-26T14:59:53.819Z,60.40
2019-06-26T15:02:23.859Z,60.20
2019-06-26T15:08:02.876Z,60.70
2019-06-26T15:10:33.237Z,60.60
2019-06-26T15:16:01.440Z,60.80
2019-06-26T15:18:31.656Z,61.10
2019-06-26T15:21:03.108Z,61.20
2019-06-26T15:29:53.955Z,61.20
2019-06-26T15:32:24.173Z,61.70
2019-06-26T15:34:54.303Z,61.60
2019-06-26T15:37:24.534Z,61.60
2019-06-26T15:43:03.439Z,61.80
2019-06-26T15:52:14.823Z,61.80
2019-06-26T15:57:47.605Z,61.90
2019-06-26T20:41:36.075Z,71.20
2019-06-26T20:44:05.983Z,71.10
2019-06-26T20:46:35.866Z,71.90
2019-06-26T20:49:05.767Z,72.10
2019-06-26T20:51:35.659Z,72.00
2019-06-26T22:50:24.963Z,77.50
2019-06-26T22:52:54.954Z,77.20
2019-06-26T22:55:24.895Z,77.20
2019-06-26T22:57:55.351Z,77.30
2019-06-26T23:00:25.698Z,77.40
2019-06-26T23:02:55.589Z,77.20
2019-06-26T23:05:25.477Z,76.80
2019-06-26T23:11:05.483Z,77.30
2019-06-26T23:13:35.372Z,77.60
2019-06-26T23:16:05.521Z,78.00
2019-06-26T23:18:35.754Z,77.20
2019-06-26T23:24:15.661Z,76.90
2019-06-26T23:26:45.565Z,76.70
2019-06-26T23:29:15.444Z,76.10
2019-06-26T23:31:45.363Z,75.70
2019-06-26T23:34:15.258Z,76.00
2019-06-26T23:36:45.149Z,75.70
2019-06-26T23:39:15.417Z,76.00
2019-06-26T23:41:45.404Z,75.40
2019-06-26T23:44:15.762Z,75.30
2019-06-26T23:46:46.095Z,75.50
2019-06-26T23:49:16.205Z,75.10
2019-06-26T23:51:46.101Z,74.80
2019-06-26T23:54:16.452Z,74.50
2019-06-26T23:56:46.676Z,74.80
2019-06-26T23:59:16.908Z,75.10
